Time;durP1;ratioP1;P1;durP2;ratioP2;P2;SDS_P1;SDS_P2;PMS_P1;PMS_P2;Temp;Humidity;BMP_temperature;BMP_pressure;BME280_temperature;BME280_humidity;BME280_pressure;Samples;Min_cycle;Max_cycle;Signal;HPM_P1;HPM_P2
2021/01/11 00:02:21;;;;;;;29.27;19.80;;;;;;;;;;5057225;28;20527;-72
2021/01/11 00:04:48;;;;;;;29.40;21.10;;;;;;;;;;5057518;28;20446;-72
2021/01/11 00:07:16;;;;;;;29.00;20.40;;;;;;;;;;5057898;28;20461;-71
2021/01/11 00:09:43;;;;;;;30.23;20.80;;;;;;;;;;5057826;28;20458;-71
2021/01/11 00:12:11;;;;;;;30.50;21.80;;;;;;;;;;5057234;28;20528;-72
2021/01/11 00:14:39;;;;;;;26.93;20.30;;;;;;;;;;5056942;28;20486;-71
2021/01/11 00:17:07;;;;;;;21.30;16.27;;;;;;;;;;5057715;28;20460;-72
2021/01/11 00:19:34;;;;;;;36.17;21.80;;;;;;;;;;5057372;28;20496;-72
2021/01/11 00:22:02;;;;;;;34.13;21.90;;;;;;;;;;5057168;28;20882;-71
2021/01/11 00:24:29;;;;;;;31.63;21.80;;;;;;;;;;5057149;28;20449;-72
2021/01/11 00:26:57;;;;;;;33.03;19.90;;;;;;;;;;5056748;28;20508;-72
2021/01/11 00:29:24;;;;;;;45.53;23.53;;;;;;;;;;5056965;28;20449;-72
2021/01/11 00:31:53;;;;;;;30.87;20.67;;;;;;;;;;5057386;28;20479;-72
2021/01/11 00:34:20;;;;;;;31.90;21.87;;;;;;;;;;5057580;28;20496;-72
2021/01/11 00:36:48;;;;;;;29.40;21.20;;;;;;;;;;5057232;28;20483;-72
2021/01/11 00:39:15;;;;;;;37.17;21.70;;;;;;;;;;5056308;28;20464;-72
2021/01/11 00:41:44;;;;;;;33.93;24.90;;;;;;;;;;5056910;28;20462;-72
2021/01/11 00:44:11;;;;;;;38.33;23.07;;;;;;;;;;5056570;28;20521;-72
2021/01/11 00:46:39;;;;;;;36.07;23.17;;;;;;;;;;5056541;28;20567;-72
2021/01/11 00:49:07;;;;;;;29.80;20.93;;;;;;;;;;5056753;28;20445;-72
2021/01/11 00:51:38;;;;;;;31.93;22.03;;;;;;;;;;5057628;28;20523;-72
2021/01/11 00:54:06;;;;;;;40.17;23.27;;;;;;;;;;5057042;28;20498;-72
2021/01/11 00:56:34;;;;;;;33.80;22.07;;;;;;;;;;5057203;28;20885;-72
2021/01/11 00:59:02;;;;;;;36.10;23.13;;;;;;;;;;5056816;28;20508;-72
2021/01/11 01:01:29;;;;;;;38.73;22.70;;;;;;;;;;5056632;28;20461;-72
2021/01/11 01:03:57;;;;;;;34.47;22.47;;;;;;;;;;5056574;28;20527;-72
2021/01/11 01:06:26;;;;;;;40.37;24.13;;;;;;;;;;5056974;28;20777;-72
2021/01/11 01:08:53;;;;;;;35.17;24.40;;;;;;;;;;5055746;28;20488;-72
2021/01/11 01:11:21;;;;;;;39.77;25.23;;;;;;;;;;5055824;28;20457;-72
2021/01/11 01:13:49;;;;;;;33.27;22.80;;;;;;;;;;5056583;28;20735;-72
2021/01/11 01:16:27;;;;;;;37.30;24.67;;;;;;;;;;5056458;28;20446;-72
2021/01/11 01:18:54;;;;;;;35.40;23.67;;;;;;;;;;5056933;28;20465;-72
2021/01/11 01:21:22;;;;;;;30.43;20.27;;;;;;;;;;5056897;28;20468;-72
2021/01/11 01:23:50;;;;;;;31.40;20.00;;;;;;;;;;5056623;28;20912;-72
2021/01/11 01:26:18;;;;;;;37.70;22.57;;;;;;;;;;5056547;28;20450;-72
2021/01/11 01:28:45;;;;;;;35.90;21.53;;;;;;;;;;5056372;28;20526;-72
2021/01/11 01:31:13;;;;;;;21.87;16.20;;;;;;;;;;5056593;28;20541;-72
2021/01/11 01:33:42;;;;;;;33.97;21.77;;;;;;;;;;5056583;28;20468;-72
2021/01/11 01:36:09;;;;;;;37.90;24.67;;;;;;;;;;5056643;28;20466;-72
2021/01/11 01:38:37;;;;;;;40.07;25.90;;;;;;;;;;5056927;28;20473;-72
2021/01/11 01:41:05;;;;;;;38.97;25.17;;;;;;;;;;5056505;28;20524;-72
2021/01/11 01:43:33;;;;;;;32.83;21.27;;;;;;;;;;5056251;28;20943;-72
2021/01/11 01:46:00;;;;;;;39.17;24.57;;;;;;;;;;5056414;28;20450;-72
2021/01/11 01:48:28;;;;;;;35.47;23.93;;;;;;;;;;5056254;28;20457;-72
2021/01/11 01:50:55;;;;;;;34.40;24.47;;;;;;;;;;5060572;28;20460;-72
2021/01/11 01:53:23;;;;;;;42.23;25.60;;;;;;;;;;5060284;28;21051;-71
2021/01/11 01:55:50;;;;;;;44.33;26.80;;;;;;;;;;5060674;28;20477;-72
2021/01/11 01:58:22;;;;;;;41.00;25.47;;;;;;;;;;5060467;28;20466;-71
2021/01/11 02:00:49;;;;;;;43.63;27.40;;;;;;;;;;5060645;28;20753;-72
2021/01/11 02:03:17;;;;;;;44.67;25.30;;;;;;;;;;5060561;28;20866;-72
2021/01/11 02:05:45;;;;;;;42.90;25.30;;;;;;;;;;5061013;28;20460;-72
2021/01/11 02:08:18;;;;;;;47.97;24.47;;;;;;;;;;5060459;28;20548;-72
2021/01/11 02:10:51;;;;;;;44.50;27.70;;;;;;;;;;5060283;28;20470;-72
2021/01/11 02:13:37;;;;;;;37.13;21.50;;;;;;;;;;5060365;28;20457;-71
2021/01/11 02:16:07;;;;;;;44.67;25.43;;;;;;;;;;5060623;28;20980;-73
2021/01/11 02:18:40;;;;;;;42.97;27.00;;;;;;;;;;5060078;28;20457;-72
2021/01/11 02:21:25;;;;;;;44.27;26.80;;;;;;;;;;5060121;28;20461;-73
2021/01/11 02:24:11;;;;;;;44.90;29.43;;;;;;;;;;5059924;28;20473;-72
2021/01/11 02:26:53;;;;;;;43.57;26.40;;;;;;;;;;5060414;28;20454;-73
2021/01/11 02:29:29;;;;;;;35.97;23.57;;;;;;;;;;5073571;28;20740;-73
2021/01/11 02:31:57;;;;;;;44.67;25.20;;;;;;;;;;5080383;28;20460;-73
2021/01/11 02:34:25;;;;;;;42.27;26.90;;;;;;;;;;5079992;28;20973;-72
2021/01/11 02:36:53;;;;;;;37.70;22.73;;;;;;;;;;5079814;28;20594;-73
2021/01/11 02:39:20;;;;;;;47.53;26.10;;;;;;;;;;5079846;28;20464;-72
2021/01/11 02:41:48;;;;;;;47.80;26.53;;;;;;;;;;5079809;28;20777;-72
2021/01/11 02:44:15;;;;;;;41.77;26.37;;;;;;;;;;5079481;28;20453;-72
2021/01/11 02:46:43;;;;;;;44.67;25.73;;;;;;;;;;5079619;28;20462;-73
2021/01/11 02:49:19;;;;;;;47.77;28.30;;;;;;;;;;5079468;28;20504;-72
2021/01/11 02:51:52;;;;;;;47.10;30.70;;;;;;;;;;5079801;28;20721;-72
2021/01/11 02:54:22;;;;;;;42.80;27.70;;;;;;;;;;5079673;28;20800;-72
2021/01/11 02:56:52;;;;;;;41.10;27.30;;;;;;;;;;5079752;28;20455;-72
2021/01/11 02:59:20;;;;;;;45.53;25.03;;;;;;;;;;5079707;28;20480;-72
2021/01/11 03:01:51;;;;;;;41.73;25.17;;;;;;;;;;5078735;28;20457;-72
2021/01/11 03:04:23;;;;;;;37.30;23.37;;;;;;;;;;5079398;28;20452;-72
2021/01/11 03:06:55;;;;;;;46.33;24.30;;;;;;;;;;5079460;28;20495;-72
2021/01/11 03:09:22;;;;;;;47.27;26.43;;;;;;;;;;5079273;28;20571;-72
2021/01/11 03:11:50;;;;;;;42.50;23.50;;;;;;;;;;5079493;28;20564;-72
2021/01/11 03:14:21;;;;;;;47.70;28.67;;;;;;;;;;5078945;28;20756;-72
2021/01/11 03:16:48;;;;;;;44.33;26.67;;;;;;;;;;5076812;28;20480;-72
2021/01/11 03:19:16;;;;;;;47.60;26.27;;;;;;;;;;5079151;28;20449;-72
2021/01/11 03:21:44;;;;;;;48.93;27.53;;;;;;;;;;5079386;28;20453;-72
2021/01/11 03:24:14;;;;;;;43.57;27.67;;;;;;;;;;5079385;28;20531;-72
2021/01/11 03:26:42;;;;;;;45.13;25.50;;;;;;;;;;5079257;28;20860;-72
2021/01/11 03:29:09;;;;;;;45.27;23.93;;;;;;;;;;5079130;28;20487;-72
2021/01/11 03:31:37;;;;;;;44.00;24.10;;;;;;;;;;5079006;28;20496;-72
2021/01/11 03:34:05;;;;;;;45.03;26.67;;;;;;;;;;5078774;28;20488;-72
2021/01/11 03:36:32;;;;;;;45.97;27.83;;;;;;;;;;5078828;28;20475;-72
2021/01/11 03:39:01;;;;;;;41.70;24.07;;;;;;;;;;5078894;28;20453;-72
2021/01/11 03:41:28;;;;;;;42.87;26.60;;;;;;;;;;5078919;28;20845;-72
2021/01/11 03:43:56;;;;;;;42.97;24.07;;;;;;;;;;5078919;28;20507;-72
2021/01/11 03:46:23;;;;;;;42.23;25.87;;;;;;;;;;5078606;28;20530;-72
2021/01/11 03:48:50;;;;;;;48.83;26.97;;;;;;;;;;5078465;28;20460;-72
2021/01/11 03:51:18;;;;;;;45.13;26.67;;;;;;;;;;5078767;28;20464;-72
2021/01/11 03:53:46;;;;;;;46.10;26.43;;;;;;;;;;5078382;28;21019;-72
2021/01/11 03:56:14;;;;;;;50.30;27.67;;;;;;;;;;5078476;28;20508;-72
2021/01/11 03:58:42;;;;;;;51.13;28.17;;;;;;;;;;5077058;28;20441;-73
2021/01/11 04:01:09;;;;;;;47.83;27.67;;;;;;;;;;5078014;28;20557;-72
2021/01/11 04:03:37;;;;;;;53.43;27.77;;;;;;;;;;5077798;28;20449;-72
2021/01/11 04:06:04;;;;;;;47.93;27.73;;;;;;;;;;5077686;28;20457;-73
2021/01/11 04:08:32;;;;;;;52.73;29.07;;;;;;;;;;5077922;28;20449;-73
2021/01/11 04:11:01;;;;;;;51.70;28.63;;;;;;;;;;5077831;28;20461;-73
2021/01/11 04:13:29;;;;;;;49.37;27.50;;;;;;;;;;5076555;28;20453;-73
2021/01/11 04:15:58;;;;;;;45.13;24.90;;;;;;;;;;5077402;28;20504;-72
2021/01/11 04:18:25;;;;;;;50.50;28.07;;;;;;;;;;5077637;28;20453;-72
2021/01/11 04:20:55;;;;;;;31.00;16.80;;;;;;;;;;5077171;28;20865;-72
2021/01/11 04:23:23;;;;;;;48.63;26.37;;;;;;;;;;5076898;28;20453;-72
2021/01/11 04:25:51;;;;;;;52.00;28.17;;;;;;;;;;5076694;28;20548;-73
2021/01/11 04:28:18;;;;;;;44.47;24.63;;;;;;;;;;5076488;28;20522;-72
2021/01/11 04:30:47;;;;;;;54.30;28.90;;;;;;;;;;5076919;28;20548;-72
2021/01/11 04:33:14;;;;;;;46.90;28.67;;;;;;;;;;5076849;28;20562;-72
2021/01/11 04:35:42;;;;;;;51.33;27.20;;;;;;;;;;5077133;28;20681;-71
2021/01/11 04:38:09;;;;;;;45.57;26.47;;;;;;;;;;5076583;28;20516;-73
2021/01/11 04:40:37;;;;;;;47.33;27.10;;;;;;;;;;5077220;28;20449;-73
2021/01/11 04:43:05;;;;;;;47.37;28.30;;;;;;;;;;5077091;28;20449;-72
2021/01/11 04:45:33;;;;;;;45.27;26.20;;;;;;;;;;5076878;28;20544;-73
2021/01/11 04:48:02;;;;;;;53.20;27.70;;;;;;;;;;5077184;28;20453;-73
2021/01/11 04:50:30;;;;;;;42.13;23.53;;;;;;;;;;5076910;28;20491;-72
2021/01/11 04:52:57;;;;;;;46.20;24.40;;;;;;;;;;5076870;28;20461;-73
2021/01/11 04:55:25;;;;;;;43.73;25.87;;;;;;;;;;5077223;28;20891;-72
2021/01/11 04:57:54;;;;;;;51.90;26.23;;;;;;;;;;5076901;28;20450;-72
2021/01/11 05:00:22;;;;;;;47.23;26.87;;;;;;;;;;5076912;28;20457;-72
2021/01/11 05:02:57;;;;;;;45.30;24.40;;;;;;;;;;5076746;28;20448;-72
2021/01/11 05:05:26;;;;;;;49.53;27.20;;;;;;;;;;5076011;28;20754;-72
2021/01/11 05:07:54;;;;;;;41.97;25.33;;;;;;;;;;5076652;28;20470;-72
2021/01/11 05:10:25;;;;;;;40.43;23.93;;;;;;;;;;5076630;28;20880;-71
2021/01/11 05:12:56;;;;;;;44.27;26.70;;;;;;;;;;5076718;28;20753;-73
2021/01/11 05:15:24;;;;;;;44.27;23.93;;;;;;;;;;5077005;28;20535;-73
2021/01/11 05:17:52;;;;;;;46.37;26.60;;;;;;;;;;5056774;28;20523;-73
2021/01/11 05:20:21;;;;;;;44.27;22.43;;;;;;;;;;5056571;28;20458;-73
2021/01/11 05:22:50;;;;;;;47.43;25.43;;;;;;;;;;5056799;28;20493;-73
2021/01/11 05:25:18;;;;;;;36.03;19.60;;;;;;;;;;5068009;28;20449;-73
2021/01/11 05:27:47;;;;;;;48.57;25.57;;;;;;;;;;5076048;28;20438;-73
2021/01/11 05:30:31;;;;;;;43.30;24.60;;;;;;;;;;5076326;28;20480;-72
2021/01/11 05:32:58;;;;;;;53.57;26.70;;;;;;;;;;5076574;28;20453;-72
2021/01/11 05:35:27;;;;;;;46.13;25.13;;;;;;;;;;5075476;28;20484;-72
2021/01/11 05:37:59;;;;;;;41.53;23.53;;;;;;;;;;5059750;28;20532;-72
2021/01/11 05:40:28;;;;;;;49.10;25.13;;;;;;;;;;5056542;28;20466;-72
2021/01/11 05:42:56;;;;;;;37.57;21.00;;;;;;;;;;5056085;28;20516;-73
2021/01/11 05:45:24;;;;;;;46.33;24.97;;;;;;;;;;5055698;28;20540;-72
2021/01/11 05:47:55;;;;;;;39.47;22.27;;;;;;;;;;5056092;28;20630;-72
2021/01/11 05:50:23;;;;;;;44.10;23.87;;;;;;;;;;5056215;28;20878;-72
2021/01/11 05:52:51;;;;;;;45.53;25.03;;;;;;;;;;5055156;28;20529;-72
2021/01/11 05:55:23;;;;;;;38.53;22.37;;;;;;;;;;5055798;28;20869;-72
2021/01/11 05:57:57;;;;;;;48.20;24.57;;;;;;;;;;5055665;28;20461;-72
2021/01/11 06:00:26;;;;;;;36.27;19.97;;;;;;;;;;5055075;28;20552;-72
2021/01/11 06:02:54;;;;;;;36.27;21.37;;;;;;;;;;5056454;28;20454;-72
2021/01/11 06:05:22;;;;;;;28.47;16.33;;;;;;;;;;5055548;28;20509;-72
2021/01/11 06:07:50;;;;;;;37.50;22.60;;;;;;;;;;5055196;28;20442;-72
2021/01/11 06:10:18;;;;;;;41.97;25.40;;;;;;;;;;5054989;28;20750;-72
2021/01/11 06:12:46;;;;;;;42.83;25.73;;;;;;;;;;5054672;28;20450;-72
2021/01/11 06:15:15;;;;;;;40.90;22.27;;;;;;;;;;5066919;28;20520;-72
2021/01/11 06:17:44;;;;;;;50.47;27.60;;;;;;;;;;5074863;28;20518;-72
2021/01/11 06:20:14;;;;;;;42.63;23.80;;;;;;;;;;5074405;28;20751;-72
2021/01/11 06:22:56;;;;;;;43.67;23.70;;;;;;;;;;5074636;28;20453;-73
2021/01/11 06:25:34;;;;;;;45.67;26.77;;;;;;;;;;5072153;28;20552;-72
2021/01/11 06:28:03;;;;;;;48.13;28.47;;;;;;;;;;5074069;28;20441;-72
2021/01/11 06:30:38;;;;;;;46.40;25.97;;;;;;;;;;5073975;28;20791;-72
2021/01/11 06:33:09;;;;;;;50.83;27.43;;;;;;;;;;5074760;28;20521;-72
2021/01/11 06:35:37;;;;;;;46.30;27.57;;;;;;;;;;5074906;28;20829;-72
2021/01/11 06:38:12;;;;;;;39.90;20.80;;;;;;;;;;5077786;28;20456;-72
2021/01/11 06:40:39;;;;;;;46.63;26.63;;;;;;;;;;5077309;28;20571;-73
2021/01/11 06:43:08;;;;;;;43.00;21.07;;;;;;;;;;5076882;28;20613;-73
2021/01/11 06:45:37;;;;;;;46.03;25.17;;;;;;;;;;5076940;28;20526;-72
2021/01/11 06:48:05;;;;;;;42.23;24.20;;;;;;;;;;5078111;28;20481;-72
2021/01/11 06:50:33;;;;;;;49.23;25.53;;;;;;;;;;5078490;28;20465;-72
2021/01/11 06:53:01;;;;;;;43.60;24.60;;;;;;;;;;5077639;28;20750;-72
2021/01/11 06:55:32;;;;;;;43.00;24.10;;;;;;;;;;5077109;28;20583;-72
2021/01/11 06:58:01;;;;;;;44.13;25.70;;;;;;;;;;5077720;28;20457;-72
2021/01/11 07:00:33;;;;;;;33.50;19.77;;;;;;;;;;5075993;28;20453;-73
2021/01/11 07:03:02;;;;;;;40.07;21.30;;;;;;;;;;5076522;28;20518;-72
2021/01/11 07:05:50;;;;;;;37.57;21.70;;;;;;;;;;5077296;28;20456;-73
2021/01/11 07:08:23;;;;;;;29.50;16.70;;;;;;;;;;5077876;28;20459;-73
2021/01/11 07:11:06;;;;;;;37.90;22.03;;;;;;;;;;5078169;28;20497;-73
2021/01/11 07:13:33;;;;;;;29.57;18.30;;;;;;;;;;5078328;28;20569;-73
2021/01/11 07:16:16;;;;;;;30.83;17.97;;;;;;;;;;5077404;28;20481;-73
2021/01/11 07:18:50;;;;;;;30.23;17.50;;;;;;;;;;5077615;28;20694;-73
2021/01/11 07:21:18;;;;;;;28.87;16.40;;;;;;;;;;5078228;28;20539;-73
2021/01/11 07:23:47;;;;;;;30.43;17.30;;;;;;;;;;5077837;28;20491;-73
2021/01/11 07:26:15;;;;;;;29.80;19.30;;;;;;;;;;5076609;28;20856;-73
2021/01/11 07:28:50;;;;;;;24.97;16.43;;;;;;;;;;5077565;28;20450;-73
2021/01/11 07:31:35;;;;;;;33.57;19.03;;;;;;;;;;5077525;28;20449;-73
2021/01/11 07:34:06;;;;;;;31.10;18.40;;;;;;;;;;5077559;28;20536;-74
2021/01/11 07:36:34;;;;;;;26.43;17.23;;;;;;;;;;5077369;28;20992;-73
2021/01/11 07:39:09;;;;;;;32.30;20.10;;;;;;;;;;5077251;28;21008;-73
2021/01/11 07:41:38;;;;;;;27.47;18.13;;;;;;;;;;5077474;28;20496;-73
2021/01/11 07:44:12;;;;;;;25.03;17.13;;;;;;;;;;5076320;28;20445;-73
2021/01/11 07:46:40;;;;;;;30.03;18.60;;;;;;;;;;5076290;28;20456;-73
2021/01/11 07:49:16;;;;;;;24.77;17.20;;;;;;;;;;5076417;28;20464;-73
2021/01/11 07:51:45;;;;;;;18.17;13.10;;;;;;;;;;5075956;28;20463;-73
2021/01/11 07:54:15;;;;;;;24.57;16.93;;;;;;;;;;5075786;28;20460;-73
2021/01/11 07:56:43;;;;;;;20.00;13.50;;;;;;;;;;5075967;28;20495;-73
2021/01/11 07:59:10;;;;;;;28.17;18.30;;;;;;;;;;5075830;28;20482;-73
2021/01/11 08:01:42;;;;;;;26.37;17.47;;;;;;;;;;5075374;28;20572;-73
2021/01/11 08:04:10;;;;;;;23.70;15.63;;;;;;;;;;5075841;28;20483;-72
2021/01/11 08:07:06;;;;;;;27.10;17.20;;;;;;;;;;5075694;28;20456;-72
2021/01/11 08:09:35;;;;;;;22.23;17.23;;;;;;;;;;5076120;28;20448;-72
2021/01/11 08:12:11;;;;;;;23.90;15.60;;;;;;;;;;5075781;28;20477;-73
2021/01/11 08:14:41;;;;;;;24.73;15.40;;;;;;;;;;5076267;28;20532;-73
2021/01/11 08:17:13;;;;;;;27.17;14.87;;;;;;;;;;5076407;28;20460;-73
2021/01/11 08:19:41;;;;;;;24.07;16.07;;;;;;;;;;5074656;28;21021;-72
2021/01/11 08:22:09;;;;;;;26.43;18.07;;;;;;;;;;5075449;28;20456;-73
2021/01/11 08:24:39;;;;;;;25.20;14.30;;;;;;;;;;5076730;28;20441;-72
2021/01/11 08:27:16;;;;;;;23.60;15.90;;;;;;;;;;5075516;28;20460;-73
2021/01/11 08:29:43;;;;;;;20.53;13.80;;;;;;;;;;5074687;28;20452;-73
2021/01/11 08:32:11;;;;;;;21.07;13.60;;;;;;;;;;5076584;28;20480;-73
2021/01/11 08:34:40;;;;;;;22.23;15.27;;;;;;;;;;5075525;28;20440;-72
2021/01/11 08:37:24;;;;;;;24.60;14.63;;;;;;;;;;5076177;28;20460;-73
2021/01/11 08:39:59;;;;;;;21.33;14.93;;;;;;;;;;5074532;28;20449;-73
2021/01/11 08:42:26;;;;;;;23.53;16.03;;;;;;;;;;5074833;28;20466;-74
2021/01/11 08:44:54;;;;;;;22.27;15.57;;;;;;;;;;5075367;28;20874;-72
2021/01/11 08:47:28;;;;;;;17.10;9.30;;;;;;;;;;5075670;28;20457;-73
2021/01/11 08:49:56;;;;;;;23.40;14.80;;;;;;;;;;5076162;28;20495;-73
2021/01/11 08:52:28;;;;;;;17.53;10.60;;;;;;;;;;5075036;28;20495;-72
2021/01/11 08:54:55;;;;;;;22.10;14.80;;;;;;;;;;5075060;28;20908;-72
2021/01/11 08:57:27;;;;;;;22.97;15.27;;;;;;;;;;5074824;28;20457;-72
2021/01/11 08:59:55;;;;;;;22.60;16.10;;;;;;;;;;5075127;28;20895;-72
2021/01/11 09:02:28;;;;;;;23.80;15.90;;;;;;;;;;5074978;28;20518;-72
2021/01/11 09:04:57;;;;;;;19.83;14.13;;;;;;;;;;5075264;28;20465;-73
2021/01/11 09:07:28;;;;;;;19.27;12.47;;;;;;;;;;5073857;28;20648;-73
2021/01/11 09:09:56;;;;;;;17.27;12.30;;;;;;;;;;5074202;28;20453;-72
2021/01/11 09:12:31;;;;;;;27.00;17.17;;;;;;;;;;5076064;28;20449;-74
2021/01/11 09:15:03;;;;;;;22.77;16.10;;;;;;;;;;5075182;28;20549;-74
2021/01/11 09:17:32;;;;;;;19.83;13.07;;;;;;;;;;5073681;28;20464;-73
2021/01/11 09:20:00;;;;;;;17.17;11.70;;;;;;;;;;5074276;28;20547;-73
2021/01/11 09:22:35;;;;;;;24.63;17.27;;;;;;;;;;5074226;28;20449;-73
2021/01/11 09:25:03;;;;;;;24.30;16.47;;;;;;;;;;5073348;28;20455;-73
2021/01/11 09:27:34;;;;;;;25.50;17.73;;;;;;;;;;5074564;28;20449;-73
2021/01/11 09:30:04;;;;;;;23.00;16.47;;;;;;;;;;5075699;28;20445;-72
2021/01/11 09:32:32;;;;;;;17.90;11.87;;;;;;;;;;5074412;28;20455;-73
2021/01/11 09:35:00;;;;;;;23.30;14.80;;;;;;;;;;5075454;28;20491;-71
2021/01/11 09:37:27;;;;;;;22.00;12.47;;;;;;;;;;5075589;28;20562;-73
2021/01/11 09:39:57;;;;;;;30.93;19.00;;;;;;;;;;5074807;28;20471;-72
2021/01/11 09:42:25;;;;;;;24.73;16.50;;;;;;;;;;5074955;28;20449;-73
2021/01/11 09:44:53;;;;;;;30.80;19.30;;;;;;;;;;5074251;28;20953;-73
2021/01/11 09:47:22;;;;;;;30.20;19.27;;;;;;;;;;5075009;28;20456;-73
2021/01/11 09:49:49;;;;;;;19.27;13.07;;;;;;;;;;5073426;28;20468;-73
2021/01/11 09:52:17;;;;;;;31.60;18.07;;;;;;;;;;5073836;28;20542;-73
2021/01/11 09:54:46;;;;;;;22.97;15.90;;;;;;;;;;5072974;28;20449;-72
2021/01/11 09:57:13;;;;;;;37.50;21.30;;;;;;;;;;5074199;28;20450;-73
2021/01/11 09:59:41;;;;;;;31.30;20.03;;;;;;;;;;5074436;28;20503;-71
2021/01/11 10:02:11;;;;;;;34.83;21.77;;;;;;;;;;5072559;28;20876;-73
2021/01/11 10:04:38;;;;;;;31.50;19.73;;;;;;;;;;5073544;28;20441;-73
2021/01/11 10:07:09;;;;;;;33.53;21.60;;;;;;;;;;5074595;28;20861;-73
2021/01/11 10:09:40;;;;;;;34.33;19.70;;;;;;;;;;5073480;28;20459;-73
2021/01/11 10:12:09;;;;;;;39.37;23.10;;;;;;;;;;5078978;28;20893;-72
2021/01/11 10:14:39;;;;;;;37.07;22.30;;;;;;;;;;5078952;28;20444;-73
2021/01/11 10:17:07;;;;;;;38.13;22.33;;;;;;;;;;5077252;28;20437;-72
2021/01/11 10:19:35;;;;;;;42.13;25.40;;;;;;;;;;5079078;28;20469;-72
2021/01/11 10:22:03;;;;;;;40.50;22.87;;;;;;;;;;5078976;28;20453;-72
2021/01/11 10:24:31;;;;;;;37.97;22.90;;;;;;;;;;5079139;28;20473;-72
2021/01/11 10:27:00;;;;;;;36.90;21.33;;;;;;;;;;5077929;28;20471;-72
2021/01/11 10:29:27;;;;;;;39.03;23.57;;;;;;;;;;5077734;28;20457;-72
2021/01/11 10:31:55;;;;;;;57.10;35.17;;;;;;;;;;5078720;28;20720;-72
2021/01/11 10:34:23;;;;;;;49.73;27.27;;;;;;;;;;5078985;28;20982;-72
2021/01/11 10:36:54;;;;;;;37.03;17.87;;;;;;;;;;5078025;28;20486;-72
2021/01/11 10:39:23;;;;;;;41.07;23.33;;;;;;;;;;5078141;28;20461;-73
2021/01/11 10:41:54;;;;;;;40.40;26.03;;;;;;;;;;5079704;28;20511;-72
2021/01/11 10:44:22;;;;;;;45.43;23.97;;;;;;;;;;5079437;28;20757;-72
2021/01/11 10:46:50;;;;;;;38.27;23.47;;;;;;;;;;5079250;28;20941;-72
2021/01/11 10:49:18;;;;;;;40.00;21.07;;;;;;;;;;5079499;28;20505;-72
2021/01/11 10:51:46;;;;;;;43.37;27.03;;;;;;;;;;5079256;28;20464;-72
2021/01/11 10:54:15;;;;;;;39.17;25.17;;;;;;;;;;5080355;28;20784;-72
2021/01/11 10:56:43;;;;;;;42.23;25.30;;;;;;;;;;5079144;28;20749;-72
2021/01/11 10:59:17;;;;;;;37.43;21.57;;;;;;;;;;5080328;28;20484;-72
2021/01/11 11:01:50;;;;;;;42.73;25.33;;;;;;;;;;5080123;28;20448;-73
2021/01/11 11:04:26;;;;;;;40.53;25.00;;;;;;;;;;5078146;28;20611;-73
2021/01/11 11:06:59;;;;;;;43.30;24.43;;;;;;;;;;5068276;28;20463;-73
2021/01/11 11:09:28;;;;;;;39.33;23.23;;;;;;;;;;5070254;28;21005;-72
2021/01/11 11:11:56;;;;;;;49.00;29.00;;;;;;;;;;5078356;28;20786;-72
2021/01/11 11:14:44;;;;;;;48.07;26.10;;;;;;;;;;5077959;28;20889;-73
2021/01/11 11:17:21;;;;;;;33.47;16.07;;;;;;;;;;5072946;28;20469;-72
2021/01/11 11:19:54;;;;;;;36.80;21.60;;;;;;;;;;5079610;28;20811;-73
2021/01/11 11:22:32;;;;;;;39.10;25.20;;;;;;;;;;5076389;28;20449;-72
2021/01/11 11:25:08;;;;;;;42.47;26.80;;;;;;;;;;5079152;28;20514;-73
2021/01/11 11:27:48;;;;;;;46.00;24.87;;;;;;;;;;5088806;28;20864;-72
2021/01/11 11:30:20;;;;;;;41.57;24.73;;;;;;;;;;5084617;28;20448;-73
2021/01/11 11:32:48;;;;;;;42.50;26.70;;;;;;;;;;5078772;28;20889;-73
2021/01/11 11:35:17;;;;;;;41.10;23.43;;;;;;;;;;5078193;28;20587;-72
2021/01/11 11:37:45;;;;;;;39.47;20.63;;;;;;;;;;5077457;28;20448;-73
2021/01/11 11:40:17;;;;;;;32.67;20.50;;;;;;;;;;5077179;28;20521;-72
2021/01/11 11:42:45;;;;;;;39.27;23.23;;;;;;;;;;5077092;28;20492;-72
2021/01/11 11:45:14;;;;;;;34.57;17.83;;;;;;;;;;5076829;28;20563;-72
2021/01/11 11:47:42;;;;;;;38.57;18.47;;;;;;;;;;5076274;28;20532;-72
2021/01/11 11:50:10;;;;;;;37.70;22.23;;;;;;;;;;5077442;28;20872;-73
2021/01/11 11:52:39;;;;;;;41.87;23.77;;;;;;;;;;5076356;28;20465;-73
2021/01/11 11:55:10;;;;;;;30.37;18.10;;;;;;;;;;5074943;28;20491;-73
2021/01/11 11:57:49;;;;;;;36.70;21.27;;;;;;;;;;5073126;28;20478;-73
2021/01/11 12:00:18;;;;;;;47.77;19.77;;;;;;;;;;5075744;28;20507;-72
2021/01/11 12:02:50;;;;;;;36.13;21.17;;;;;;;;;;5072199;28;20457;-72
2021/01/11 12:05:17;;;;;;;37.97;21.03;;;;;;;;;;5077188;28;20449;-72
2021/01/11 12:07:48;;;;;;;34.17;19.83;;;;;;;;;;5076347;28;20856;-73
2021/01/11 12:10:16;;;;;;;34.17;19.60;;;;;;;;;;5076360;28;20445;-72
2021/01/11 12:12:48;;;;;;;45.40;24.80;;;;;;;;;;5076190;28;20538;-73
2021/01/11 12:15:16;;;;;;;36.33;20.70;;;;;;;;;;5075081;28;20971;-73
2021/01/11 12:17:45;;;;;;;37.67;21.70;;;;;;;;;;5075580;28;20449;-72
2021/01/11 12:20:13;;;;;;;39.90;23.97;;;;;;;;;;5076300;28;20459;-74
2021/01/11 12:22:41;;;;;;;32.70;20.27;;;;;;;;;;5076313;28;20449;-73
2021/01/11 12:25:12;;;;;;;31.03;19.57;;;;;;;;;;5077105;28;20455;-73
2021/01/11 12:27:41;;;;;;;38.10;20.53;;;;;;;;;;5076601;28;20453;-72
2021/01/11 12:30:10;;;;;;;27.27;15.83;;;;;;;;;;5075909;28;21215;-74
2021/01/11 12:32:40;;;;;;;31.30;20.50;;;;;;;;;;5076000;28;20461;-72
2021/01/11 12:35:08;;;;;;;32.30;19.53;;;;;;;;;;5074889;28;20491;-72
2021/01/11 12:37:35;;;;;;;27.10;17.87;;;;;;;;;;5075722;28;20449;-73
2021/01/11 12:40:04;;;;;;;27.93;18.43;;;;;;;;;;5075754;28;20468;-72
2021/01/11 12:42:32;;;;;;;30.03;18.83;;;;;;;;;;5075610;28;20748;-72
2021/01/11 12:45:03;;;;;;;23.63;14.50;;;;;;;;;;5075685;28;20954;-72
2021/01/11 12:47:41;;;;;;;23.43;13.70;;;;;;;;;;5076129;28;20874;-71
2021/01/11 12:50:09;;;;;;;30.50;17.67;;;;;;;;;;5075767;28;20529;-71
2021/01/11 12:52:38;;;;;;;22.93;15.30;;;;;;;;;;5076404;28;20758;-72
2021/01/11 12:55:09;;;;;;;30.27;18.60;;;;;;;;;;5068163;28;20462;-73
2021/01/11 13:00:40;;;;;;;29.90;19.03;;;;;;;;;;5075555;28;20433;-73
2021/01/11 13:12:30;;;;;;;29.63;16.80;;;;;;;;;;5015058;28;20546;-72
2021/01/11 13:20:56;;;;;;;24.27;15.97;;;;;;;;;;5033984;28;20482;-72
2021/01/11 13:24:04;;;;;;;27.07;17.10;;;;;;;;;;5035469;28;20462;-72
2021/01/11 13:26:33;;;;;;;24.17;15.40;;;;;;;;;;5034725;28;20478;-72
2021/01/11 13:29:19;;;;;;;30.10;17.53;;;;;;;;;;5034275;28;20541;-73
2021/01/11 13:31:48;;;;;;;27.97;16.23;;;;;;;;;;5029141;28;20551;-73
2021/01/11 13:34:16;;;;;;;19.13;11.33;;;;;;;;;;5075313;28;20449;-71
2021/01/11 13:36:50;;;;;;;23.83;14.20;;;;;;;;;;5074263;28;20503;-73
2021/01/11 13:39:22;;;;;;;26.33;14.53;;;;;;;;;;5074773;28;20455;-74
2021/01/11 13:41:57;;;;;;;27.83;17.67;;;;;;;;;;5074123;28;20472;-73
2021/01/11 13:44:39;;;;;;;22.30;13.07;;;;;;;;;;5073991;28;20445;-73
2021/01/11 13:47:07;;;;;;;26.80;15.77;;;;;;;;;;5074610;28;20456;-73
2021/01/11 13:49:46;;;;;;;19.70;12.10;;;;;;;;;;5074761;28;20445;-72
2021/01/11 13:52:14;;;;;;;24.17;15.97;;;;;;;;;;5074787;28;20464;-73
2021/01/11 13:54:43;;;;;;;25.93;15.60;;;;;;;;;;5075972;28;20519;-72
2021/01/11 13:57:14;;;;;;;13.90;10.07;;;;;;;;;;5072925;28;20489;-72
2021/01/11 13:59:43;;;;;;;22.40;14.60;;;;;;;;;;5074569;28;20536;-73
2021/01/11 14:02:15;;;;;;;15.50;10.30;;;;;;;;;;5064730;28;20450;-73
2021/01/11 14:04:43;;;;;;;19.43;12.70;;;;;;;;;;5057630;28;20464;-71
2021/01/11 14:07:11;;;;;;;26.57;14.37;;;;;;;;;;5089197;28;20553;-72
2021/01/11 14:09:43;;;;;;;21.77;15.30;;;;;;;;;;5074104;28;20476;-72
2021/01/11 14:12:36;;;;;;;17.97;11.20;;;;;;;;;;5073949;28;20483;-74
2021/01/11 14:15:08;;;;;;;25.87;14.57;;;;;;;;;;5075188;28;20547;-73
2021/01/11 14:17:43;;;;;;;22.13;13.40;;;;;;;;;;5075197;28;20891;-73
2021/01/11 14:20:14;;;;;;;26.20;15.97;;;;;;;;;;5074620;28;20463;-73
2021/01/11 14:22:43;;;;;;;20.33;14.20;;;;;;;;;;5074472;28;21042;-72
2021/01/11 14:25:15;;;;;;;21.70;12.53;;;;;;;;;;5075722;28;20895;-74
2021/01/11 14:27:59;;;;;;;21.80;13.60;;;;;;;;;;5076382;28;20504;-72
2021/01/11 14:30:38;;;;;;;;;;;;;;;;;;;;;
2021/01/11 14:33:10;;;;;;;25.50;15.03;;;;;;;;;;5075429;28;20430;-71
2021/01/11 14:35:46;;;;;;;27.27;15.57;;;;;;;;;;5075507;28;20842;-72
2021/01/11 14:38:13;;;;;;;23.73;15.20;;;;;;;;;;5076986;28;20462;-71
2021/01/11 14:40:52;;;;;;;25.73;15.67;;;;;;;;;;5076104;28;20500;-71
2021/01/11 14:43:28;;;;;;;21.80;14.00;;;;;;;;;;5074932;28;20465;-72
2021/01/11 14:46:00;;;;;;;20.13;12.00;;;;;;;;;;5076412;28;20552;-72
2021/01/11 14:48:38;;;;;;;22.10;12.53;;;;;;;;;;5076318;28;20492;-72
2021/01/11 14:51:19;;;;;;;21.10;13.07;;;;;;;;;;5075075;28;20530;-72
2021/01/11 14:53:50;;;;;;;14.47;8.57;;;;;;;;;;5075738;28;20937;-72
2021/01/11 14:59:40;;;;;;;19.30;12.53;;;;;;;;;;5025493;28;20442;-71